createdAt,value
2019-03-31T00:01:08.692Z,8.67
2019-03-31T00:06:25.604Z,9.93
2019-03-31T00:11:41.757Z,9.97
2019-03-31T00:17:01.857Z,9.93
2019-03-31T00:22:18.952Z,8.30
2019-03-31T00:27:39.025Z,7.77
2019-03-31T00:32:56.136Z,9.77
2019-03-31T00:38:12.885Z,9.77
2019-03-31T00:43:32.872Z,9.30
2019-03-31T00:48:50.090Z,9.77
2019-03-31T00:54:06.841Z,12.50
2019-03-31T00:59:24.553Z,10.80
2019-03-31T01:04:41.851Z,13.37
2019-03-31T01:10:02.535Z,11.07
2019-03-31T01:15:28.102Z,11.87
2019-03-31T01:20:45.246Z,9.63
2019-03-31T01:26:03.972Z,10.60
2019-03-31T01:31:20.651Z,9.00
2019-03-31T01:36:37.410Z,11.83
2019-03-31T01:41:54.055Z,11.30
2019-03-31T01:47:10.436Z,11.07
2019-03-31T01:52:27.096Z,12.03
2019-03-31T01:57:43.581Z,11.40
2019-03-31T02:03:00.128Z,13.17
2019-03-31T02:08:17.907Z,12.10
2019-03-31T02:13:34.632Z,12.20
2019-03-31T02:18:51.237Z,11.97
2019-03-31T02:24:08.124Z,12.77
2019-03-31T02:29:25.250Z,14.10
2019-03-31T02:34:41.756Z,12.13
2019-03-31T02:39:58.037Z,13.40
2019-03-31T02:45:15.327Z,11.07
2019-03-31T02:50:52.107Z,13.97
2019-03-31T02:56:09.011Z,11.60
2019-03-31T03:01:26.182Z,12.40
2019-03-31T03:06:44.155Z,13.30
2019-03-31T03:12:02.133Z,13.13
2019-03-31T03:17:19.075Z,12.80
2019-03-31T03:22:35.633Z,13.57
2019-03-31T03:27:52.019Z,12.30
2019-03-31T03:33:16.644Z,12.10
2019-03-31T03:38:27.260Z,13.77
2019-03-31T03:43:55.185Z,11.97
2019-03-31T03:49:02.397Z,12.53
2019-03-31T03:54:19.030Z,11.73
2019-03-31T03:59:35.801Z,10.77
2019-03-31T04:04:52.402Z,14.43
2019-03-31T04:10:31.159Z,13.43
2019-03-31T04:15:47.925Z,12.00
2019-03-31T04:21:04.496Z,14.17
2019-03-31T04:26:20.973Z,14.47
2019-03-31T04:31:37.305Z,12.03
2019-03-31T04:36:53.561Z,12.67
2019-03-31T04:42:10.003Z,10.87
2019-03-31T04:47:26.718Z,12.63
2019-03-31T04:52:43.470Z,15.70
2019-03-31T04:58:00.315Z,11.10
2019-03-31T05:03:16.983Z,13.70
2019-03-31T05:08:33.400Z,15.33
2019-03-31T05:13:49.794Z,12.90
2019-03-31T05:19:06.557Z,13.70
2019-03-31T05:24:23.453Z,14.77
2019-03-31T05:29:39.898Z,13.67
2019-03-31T05:34:56.203Z,14.50
2019-03-31T05:40:13.085Z,13.73
2019-03-31T05:45:29.829Z,17.60
2019-03-31T05:50:45.968Z,15.30
2019-03-31T05:56:02.446Z,11.97
2019-03-31T06:01:20.358Z,16.33
2019-03-31T06:06:37.290Z,14.30
2019-03-31T06:11:54.154Z,17.63
2019-03-31T06:17:11.652Z,14.60
2019-03-31T06:22:28.086Z,12.57
2019-03-31T06:27:44.334Z,13.00
2019-03-31T06:33:00.419Z,12.00
2019-03-31T06:38:17.321Z,14.23
2019-03-31T06:43:33.550Z,14.03
2019-03-31T06:48:49.996Z,14.73
2019-03-31T06:54:08.154Z,14.37
2019-03-31T06:59:25.090Z,13.00
2019-03-31T07:04:41.621Z,10.50
2019-03-31T07:09:58.307Z,11.87
2019-03-31T07:15:15.238Z,10.50
2019-03-31T07:20:31.798Z,13.40
2019-03-31T07:25:48.346Z,13.83
2019-03-31T07:31:04.924Z,10.33
2019-03-31T07:36:21.406Z,13.07
2019-03-31T07:41:38.076Z,11.33
2019-03-31T07:46:54.843Z,12.83
2019-03-31T07:52:11.516Z,14.37
2019-03-31T07:57:28.442Z,15.10
2019-03-31T08:02:45.255Z,12.63
2019-03-31T08:08:01.832Z,11.20
2019-03-31T08:13:18.654Z,13.17
2019-03-31T08:18:35.320Z,12.57
2019-03-31T08:23:51.677Z,11.47
2019-03-31T08:29:08.338Z,12.87
2019-03-31T08:34:25.002Z,11.80
2019-03-31T08:39:42.195Z,10.93
2019-03-31T08:44:58.902Z,12.07
2019-03-31T08:50:15.575Z,11.57
2019-03-31T08:55:32.202Z,10.83
2019-03-31T09:00:53.795Z,14.50
2019-03-31T09:06:10.638Z,12.90
2019-03-31T09:11:27.555Z,14.10
2019-03-31T09:16:45.734Z,12.37
2019-03-31T09:22:04.522Z,12.17
2019-03-31T09:27:21.105Z,14.13
2019-03-31T09:32:37.819Z,12.70
2019-03-31T09:37:54.643Z,12.43
2019-03-31T09:43:11.504Z,17.17
2019-03-31T09:48:27.870Z,10.23
2019-03-31T09:53:44.581Z,15.37
2019-03-31T09:59:00.885Z,15.50
2019-03-31T10:04:17.379Z,14.57
2019-03-31T10:09:34.657Z,14.97
2019-03-31T10:14:54.120Z,15.70
2019-03-31T10:20:09.718Z,16.33
2019-03-31T10:25:26.613Z,16.13
2019-03-31T10:30:43.417Z,15.97
2019-03-31T10:36:00.350Z,17.60
2019-03-31T10:41:16.696Z,17.00
2019-03-31T10:46:34.731Z,15.60
2019-03-31T10:51:51.393Z,18.13
2019-03-31T10:57:08.212Z,18.80
2019-03-31T11:02:24.601Z,14.60
2019-03-31T11:07:41.047Z,11.47
2019-03-31T11:12:57.887Z,14.97
2019-03-31T11:18:15.317Z,11.93
2019-03-31T11:23:32.337Z,9.90
2019-03-31T11:28:48.958Z,7.37
2019-03-31T11:34:05.713Z,9.73
2019-03-31T11:39:22.233Z,8.53
2019-03-31T11:44:38.831Z,9.33
2019-03-31T11:49:55.105Z,10.00
2019-03-31T11:55:26.335Z,8.77
2019-03-31T12:00:48.562Z,10.53
2019-03-31T12:06:05.558Z,6.83
2019-03-31T12:11:22.185Z,8.83
2019-03-31T12:16:38.787Z,5.13
2019-03-31T12:21:55.550Z,5.70
2019-03-31T12:27:12.140Z,5.90
2019-03-31T12:32:28.618Z,5.07
2019-03-31T12:37:45.439Z,6.93
2019-03-31T12:43:04.921Z,5.30
2019-03-31T12:48:23.257Z,5.67
2019-03-31T12:53:40.026Z,5.07
2019-03-31T12:58:56.834Z,5.07
2019-03-31T13:04:13.448Z,5.33
2019-03-31T13:09:30.466Z,8.70
2019-03-31T13:14:48.817Z,8.30
2019-03-31T13:20:06.071Z,4.37
2019-03-31T13:25:22.776Z,4.60
2019-03-31T13:30:39.568Z,5.73
2019-03-31T13:35:56.630Z,5.00
2019-03-31T13:41:13.588Z,3.10
2019-03-31T13:46:30.446Z,5.30
2019-03-31T13:51:48.178Z,3.20
2019-03-31T13:57:22.886Z,4.60
2019-03-31T14:02:40.092Z,4.57
2019-03-31T14:07:56.671Z,4.30
2019-03-31T14:13:21.381Z,4.83
2019-03-31T14:19:58.416Z,3.10
2019-03-31T14:26:08.477Z,5.13
2019-03-31T14:32:47.975Z,3.13
2019-03-31T14:38:53.653Z,2.77
2019-03-31T14:43:41.510Z,3.17
2019-03-31T14:48:58.587Z,3.30
2019-03-31T14:54:17.624Z,2.53
2019-03-31T14:59:34.677Z,2.50
2019-03-31T15:04:51.188Z,4.77
2019-03-31T15:10:07.758Z,2.47
2019-03-31T15:15:27.454Z,4.33
2019-03-31T15:20:43.936Z,2.07
2019-03-31T15:26:00.605Z,2.63
2019-03-31T15:31:17.399Z,3.27
2019-03-31T15:36:34.005Z,2.83
2019-03-31T15:41:50.804Z,5.70
2019-03-31T15:47:07.824Z,1.97
2019-03-31T15:52:25.995Z,3.27
2019-03-31T15:57:42.777Z,4.97
2019-03-31T16:02:59.246Z,2.57
2019-03-31T16:08:15.094Z,2.47
2019-03-31T16:13:31.195Z,3.47
2019-03-31T16:18:47.038Z,3.83
2019-03-31T16:24:02.809Z,2.67
2019-03-31T16:29:18.340Z,3.60
2019-03-31T16:34:34.358Z,4.20
2019-03-31T16:39:50.439Z,4.47
2019-03-31T16:45:07.340Z,2.97
2019-03-31T16:50:23.262Z,2.77
2019-03-31T16:55:38.982Z,4.27
2019-03-31T17:00:54.869Z,2.93
2019-03-31T17:06:11.273Z,2.53
2019-03-31T17:11:29.477Z,2.40
2019-03-31T17:16:45.295Z,3.70
2019-03-31T17:22:01.129Z,3.27
2019-03-31T17:27:16.984Z,3.00
2019-03-31T17:32:32.813Z,4.37
2019-03-31T17:37:48.115Z,4.20
2019-03-31T17:43:05.627Z,2.80
2019-03-31T17:48:21.580Z,2.33
2019-03-31T17:53:37.168Z,2.03
2019-03-31T17:58:52.768Z,2.63
2019-03-31T18:04:08.664Z,2.97
2019-03-31T18:09:24.661Z,2.27
2019-03-31T18:14:40.675Z,2.00
2019-03-31T18:19:57.016Z,2.67
2019-03-31T18:25:12.810Z,2.77
2019-03-31T18:30:28.762Z,2.43
2019-03-31T18:35:44.473Z,2.17
2019-03-31T18:41:03.530Z,3.23
2019-03-31T18:46:18.213Z,2.87
2019-03-31T18:51:34.235Z,2.07
2019-03-31T18:57:07.644Z,2.90
2019-03-31T19:02:41.260Z,2.47
2019-03-31T19:08:21.977Z,5.87
2019-03-31T19:14:02.697Z,4.27
2019-03-31T19:19:31.504Z,2.23
2019-03-31T19:25:14.146Z,4.83
2019-03-31T19:30:52.134Z,2.80
2019-03-31T19:36:39.572Z,2.67
2019-03-31T19:42:25.853Z,4.03
2019-03-31T19:48:15.851Z,2.67
2019-03-31T19:54:17.996Z,2.77
2019-03-31T19:59:52.447Z,4.20
2019-03-31T20:05:26.028Z,2.90
2019-03-31T20:11:00.867Z,3.70
2019-03-31T20:16:40.827Z,4.77
2019-03-31T20:22:15.917Z,3.37
2019-03-31T20:27:44.247Z,3.10
2019-03-31T20:33:36.944Z,3.57
2019-03-31T20:39:30.035Z,8.70
2019-03-31T20:44:48.622Z,11.10
2019-03-31T20:50:05.628Z,13.43
2019-03-31T20:55:21.134Z,13.47
2019-03-31T21:00:37.174Z,10.43
2019-03-31T21:05:52.955Z,10.93
2019-03-31T21:11:09.202Z,11.20
2019-03-31T21:16:25.038Z,8.80
2019-03-31T21:21:57.609Z,8.03
2019-03-31T21:27:19.222Z,8.30
2019-03-31T21:32:36.609Z,8.53
2019-03-31T21:37:57.358Z,9.30
2019-03-31T21:43:18.350Z,9.40
2019-03-31T21:48:33.981Z,9.37
2019-03-31T21:53:56.101Z,9.93
2019-03-31T21:59:14.492Z,9.87
2019-03-31T22:04:30.687Z,12.33
2019-03-31T22:09:46.878Z,13.93
2019-03-31T22:15:02.632Z,9.53
2019-03-31T22:20:18.498Z,12.23
2019-03-31T22:25:34.264Z,11.57
2019-03-31T22:30:49.880Z,11.20
2019-03-31T22:36:25.159Z,9.47
2019-03-31T22:41:40.752Z,11.90
2019-03-31T22:46:56.463Z,13.37
2019-03-31T22:52:12.222Z,11.77
2019-03-31T22:57:27.754Z,11.60
2019-03-31T23:02:43.623Z,12.50
2019-03-31T23:07:59.522Z,12.43
2019-03-31T23:13:15.426Z,13.20
2019-03-31T23:18:31.167Z,12.50
2019-03-31T23:23:46.788Z,13.83
2019-03-31T23:29:02.489Z,11.67
2019-03-31T23:34:18.391Z,12.57
2019-03-31T23:39:34.436Z,12.60
2019-03-31T23:44:50.182Z,11.27
2019-03-31T23:50:05.934Z,12.63
2019-03-31T23:55:21.595Z,13.40
